Terminal Aerodrome Forecast
Issued by NWS

Home | Current Version | Previous Version | Text Only | Print | Product List | Glossary On
Versions: 1 2 3 4 5 6 7 8 9 10 11 12 13 14 15
000
FTUS44 KOUN 291737
TAFWWR
TAF
KWWR 291737Z 2918/3018 05016G22KT P6SM BKN008
      TEMPO 2918/2919 5SM TSRA OVC006CB
     FM300000 33012KT P6SM BKN025
     FM301500 30012G18KT P6SM SCT250=

USA.gov is the U.S. government's official web portal to all federal, state and local government web resources and services.